Time,TemperatureF,DewpointF,PressureIn,WindDirection,WindDirectionDegrees,WindSpeedMPH,WindSpeedGustMPH,Humidity,HourlyPrecipIn,Conditions,Clouds,dailyrainin,SolarRadiationWatts/m^2,SoftwareType,DateUTC
2013-02-02 00:00:00,24.7,8.7,30.14,NNW,336,12.0,26.0,50,0.00,,CLR,0.81,0.00,VWS V14.01,2013-02-02 05:00:00,
2013-02-02 00:01:00,24.7,9.2,30.13,NW,304,10.0,26.0,51,0.00,,CLR,0.81,0.00,VWS V14.01,2013-02-02 05:01:00,
2013-02-02 00:06:00,24.7,9.2,30.14,WNW,303,14.0,15.0,51,0.00,,CLR,0.00,0.00,VWS V14.01,2013-02-02 05:06:00,
2013-02-02 00:11:00,24.6,9.5,30.14,NW,323,10.0,20.0,52,0.00,,CLR,0.00,0.00,VWS V14.01,2013-02-02 05:11:00,
2013-02-02 00:16:00,24.6,9.9,30.14,NW,316,11.0,22.0,53,0.00,,CLR,0.00,0.00,VWS V14.01,2013-02-02 05:16:00,
2013-02-02 00:21:00,24.6,9.9,30.14,NNW,330,7.0,18.0,53,0.00,,CLR,0.00,0.00,VWS V14.01,2013-02-02 05:21:00,
2013-02-02 00:26:00,24.5,9.0,30.14,NW,316,10.0,25.0,51,0.00,,CLR,0.00,0.00,VWS V14.01,2013-02-02 05:26:00,
2013-02-02 00:31:00,24.5,9.4,30.14,NNW,337,8.0,24.0,52,0.00,,CLR,0.00,0.00,VWS V14.01,2013-02-02 05:31:00,
2013-02-02 00:36:00,24.5,9.4,30.14,NW,313,11.0,25.0,52,0.00,,CLR,0.00,0.00,VWS V14.01,2013-02-02 05:36:00,
2013-02-02 00:41:00,24.4,9.3,30.14,WNW,296,20.0,23.0,52,0.00,,CLR,0.00,0.00,VWS V14.01,2013-02-02 05:41:00,
2013-02-02 00:46:00,24.4,9.3,30.14,WNW,298,19.0,27.0,52,0.00,,CLR,0.00,0.00,VWS V14.01,2013-02-02 05:46:00,
2013-02-02 00:51:00,24.3,8.8,30.15,NW,324,25.0,25.0,51,0.00,,CLR,0.00,0.00,VWS V14.01,2013-02-02 05:51:00,
2013-02-02 00:56:00,24.2,8.7,30.15,NNW,331,16.0,24.0,51,0.00,,CLR,0.00,0.00,VWS V14.01,2013-02-02 05:56:00,
2013-02-02 01:01:00,24.3,9.6,30.15,NW,307,7.0,20.0,53,0.00,,CLR,0.00,0.00,VWS V14.01,2013-02-02 06:01:00,
2013-02-02 01:06:00,24.3,9.6,30.15,NW,306,12.0,24.0,53,0.00,,CLR,0.00,0.00,VWS V14.01,2013-02-02 06:06:00,
2013-02-02 01:11:00,24.2,8.7,30.15,NW,306,14.0,22.0,51,0.00,,CLR,0.00,0.00,VWS V14.01,2013-02-02 06:11:00,
2013-02-02 01:16:00,24.2,10.0,30.15,NW,309,18.0,21.0,54,0.00,,CLR,0.00,0.00,VWS V14.01,2013-02-02 06:16:00,
2013-02-02 01:21:00,24.3,10.1,30.15,NNW,336,8.0,26.0,54,0.00,,CLR,0.00,0.00,VWS V14.01,2013-02-02 06:21:00,
2013-02-02 01:26:00,24.3,9.6,30.16,NNW,346,9.0,24.0,53,0.00,,CLR,0.00,0.00,VWS V14.01,2013-02-02 06:26:00,
2013-02-02 01:31:00,24.2,8.7,30.16,NNW,333,15.0,23.0,51,0.00,,CLR,0.00,0.00,VWS V14.01,2013-02-02 06:31:00,
2013-02-02 01:36:00,24.1,8.2,30.16,NW,326,16.0,20.0,50,0.00,,CLR,0.00,0.00,VWS V14.01,2013-02-02 06:36:00,
2013-02-02 01:41:00,24.1,9.5,30.16,West,280,13.0,23.0,53,0.00,,CLR,0.00,0.00,VWS V14.01,2013-02-02 06:41:00,
2013-02-02 01:46:00,24.1,9.0,30.16,NW,325,11.0,23.0,52,0.00,,CLR,0.00,0.00,VWS V14.01,2013-02-02 06:46:00,
2013-02-02 01:51:00,24.2,9.6,30.16,WNW,302,15.0,24.0,53,0.00,,CLR,0.00,0.00,VWS V14.01,2013-02-02 06:51:00,
2013-02-02 01:56:00,24.1,9.9,30.17,NW,310,21.0,25.0,54,0.00,,CLR,0.00,0.00,VWS V14.01,2013-02-02 06:56:00,
2013-02-02 02:01:00,24.0,8.5,30.17,NNW,334,13.0,28.0,51,0.00,,CLR,0.00,0.00,VWS V14.01,2013-02-02 07:01:00,
2013-02-02 02:06:00,24.1,9.5,30.17,NNW,327,18.0,21.0,53,0.00,,CLR,0.00,0.00,VWS V14.01,2013-02-02 07:06:00,
2013-02-02 02:11:00,24.0,8.9,30.17,NNW,339,12.0,21.0,52,0.00,,CLR,0.00,0.00,VWS V14.01,2013-02-02 07:11:00,
2013-02-02 02:16:00,23.9,8.9,30.17,NW,324,16.0,19.0,52,0.00,,CLR,0.00,0.00,VWS V14.01,2013-02-02 07:16:00,
2013-02-02 02:21:00,23.9,9.3,30.17,NW,306,14.0,21.0,53,0.00,,CLR,0.00,0.00,VWS V14.01,2013-02-02 07:21:00,
2013-02-02 02:26:00,23.8,8.8,30.17,NW,325,5.0,25.0,52,0.00,,CLR,0.00,0.00,VWS V14.01,2013-02-02 07:26:00,
2013-02-02 02:31:00,23.8,10.0,30.17,NW,309,7.0,16.0,55,0.00,,FEW041,0.00,0.00,VWS V14.01,2013-02-02 07:31:00,
2013-02-02 02:36:00,23.7,8.7,30.18,NNW,342,13.0,20.0,52,0.00,,FEW041,0.00,0.00,VWS V14.01,2013-02-02 07:36:00,
2013-02-02 02:41:00,23.6,8.6,30.18,NNW,333,8.0,23.0,52,0.00,,FEW041,0.00,0.00,VWS V14.01,2013-02-02 07:41:00,
2013-02-02 02:46:00,23.5,8.5,30.18,NW,325,8.0,22.0,52,0.00,,FEW041,0.00,0.00,VWS V14.01,2013-02-02 07:46:00,
2013-02-02 02:51:00,23.4,9.2,30.18,NW,313,14.0,17.0,54,0.00,,FEW041,0.00,0.00,VWS V14.01,2013-02-02 07:51:00,
2013-02-02 02:56:00,23.5,10.1,30.18,NW,323,13.0,16.0,56,0.00,,FEW041,0.00,0.00,VWS V14.01,2013-02-02 07:56:00,
2013-02-02 03:01:00,23.4,9.2,30.18,NW,317,14.0,19.0,54,0.00,,FEW041,0.00,0.00,VWS V14.01,2013-02-02 08:01:00,
2013-02-02 03:06:00,23.4,9.2,30.18,WNW,303,17.0,20.0,54,0.00,,FEW041,0.00,0.00,VWS V14.01,2013-02-02 08:06:00,
2013-02-02 03:11:00,23.4,9.6,30.18,NNW,338,10.0,21.0,55,0.00,,FEW041,0.00,0.00,VWS V14.01,2013-02-02 08:11:00,
2013-02-02 03:16:00,23.3,9.5,30.18,NW,313,12.0,16.0,55,0.00,,FEW041,0.00,0.00,VWS V14.01,2013-02-02 08:16:00,
2013-02-02 03:21:00,23.3,10.3,30.18,NW,315,16.0,20.0,57,0.00,,FEW041,0.00,0.00,VWS V14.01,2013-02-02 08:21:00,
2013-02-02 03:26:00,23.4,9.6,30.18,NNW,340,8.0,16.0,55,0.00,,FEW041,0.00,0.00,VWS V14.01,2013-02-02 08:26:00,
2013-02-02 03:31:00,23.4,9.2,30.18,NNW,329,4.0,18.0,54,0.00,,SCT047,0.00,0.00,VWS V14.01,2013-02-02 08:31:00,
2013-02-02 03:36:00,23.4,8.8,30.18,WNW,298,13.0,22.0,53,0.00,,SCT047,0.00,0.00,VWS V14.01,2013-02-02 08:36:00,
2013-02-02 03:41:00,23.3,9.5,30.18,NW,305,9.0,18.0,55,0.00,,SCT047,0.00,0.00,VWS V14.01,2013-02-02 08:41:00,
2013-02-02 03:46:00,23.3,10.3,30.19,NW,312,12.0,17.0,57,0.00,,SCT047,0.00,0.00,VWS V14.01,2013-02-02 08:46:00,
2013-02-02 03:51:00,23.3,9.5,30.19,NNW,335,5.0,23.0,55,0.00,,SCT047,0.00,0.00,VWS V14.01,2013-02-02 08:51:00,
2013-02-02 03:56:00,23.1,9.8,30.19,NW,309,15.0,17.0,56,0.00,,SCT047,0.00,0.00,VWS V14.01,2013-02-02 08:56:00,
2013-02-02 04:01:00,23.2,9.0,30.19,NW,311,8.0,20.0,54,0.00,,SCT047,0.00,0.00,VWS V14.01,2013-02-02 09:01:00,
2013-02-02 04:06:00,23.2,9.4,30.19,NW,313,14.0,18.0,55,0.00,,SCT047,0.00,0.00,VWS V14.01,2013-02-02 09:06:00,
2013-02-02 04:11:00,23.1,10.1,30.19,NW,314,14.0,15.0,57,0.00,,SCT047,0.00,0.00,VWS V14.01,2013-02-02 09:11:00,
2013-02-02 04:16:00,23.1,9.8,30.20,NNW,329,6.0,16.0,56,0.00,,SCT047,0.00,0.00,VWS V14.01,2013-02-02 09:16:00,
2013-02-02 04:21:00,23.1,10.5,30.19,North,349,8.0,17.0,58,0.00,,SCT047,0.00,0.00,VWS V14.01,2013-02-02 09:21:00,
2013-02-02 04:26:00,23.0,10.1,30.20,West,281,11.0,13.0,57,0.00,,SCT047,0.00,0.00,VWS V14.01,2013-02-02 09:26:00,
2013-02-02 04:31:00,23.0,10.1,30.20,WNW,290,9.0,13.0,57,0.00,,SCT047,0.00,0.00,VWS V14.01,2013-02-02 09:31:00,
2013-02-02 04:36:00,23.0,9.7,30.20,NW,313,5.0,15.0,56,0.00,,SCT047,0.00,0.00,VWS V14.01,2013-02-02 09:36:00,
2013-02-02 04:41:00,22.9,9.6,30.20,NW,325,11.0,15.0,56,0.00,,SCT047,0.00,0.00,VWS V14.01,2013-02-02 09:41:00,
2013-02-02 04:46:00,22.9,10.0,30.21,NW,304,11.0,15.0,57,0.00,,SCT047,0.00,0.00,VWS V14.01,2013-02-02 09:46:00,
2013-02-02 04:51:00,22.9,10.0,30.20,NW,306,4.0,16.0,57,0.00,,SCT047,0.00,0.00,VWS V14.01,2013-02-02 09:51:00,
2013-02-02 04:56:00,22.9,10.0,30.21,NNW,332,7.0,16.0,57,0.00,,SCT047,0.00,0.00,VWS V14.01,2013-02-02 09:56:00,
2013-02-02 05:01:00,22.8,10.2,30.21,NW,307,7.0,18.0,58,0.00,,SCT047,0.00,0.00,VWS V14.01,2013-02-02 10:01:00,
2013-02-02 05:06:00,22.9,10.0,30.21,WNW,301,7.0,14.0,57,0.00,,SCT047,0.00,0.00,VWS V14.01,2013-02-02 10:06:00,
2013-02-02 05:10:00,22.9,9.6,30.21,NNW,333,7.0,16.0,56,0.00,,SCT047,0.00,0.00,VWS V14.01,2013-02-02 10:10:00,
2013-02-02 05:15:00,22.9,10.3,30.21,NW,304,10.0,20.0,58,0.00,,SCT047,0.00,0.00,VWS V14.01,2013-02-02 10:15:00,
2013-02-02 05:20:00,22.8,9.9,30.21,NW,313,15.0,17.0,57,0.00,,SCT047,0.00,0.00,VWS V14.01,2013-02-02 10:20:00,
2013-02-02 05:25:00,22.8,10.2,30.21,WNW,301,15.0,17.0,58,0.00,,SCT047,0.00,0.00,VWS V14.01,2013-02-02 10:25:00,
2013-02-02 05:30:00,22.8,10.6,30.21,North,360,9.0,14.0,59,0.00,,SCT047,0.00,0.00,VWS V14.01,2013-02-02 10:30:00,
2013-02-02 05:35:00,22.7,10.2,30.21,NW,314,5.0,12.0,58,0.00,,SCT047,0.00,0.00,VWS V14.01,2013-02-02 10:35:00,
2013-02-02 05:40:00,22.7,9.8,30.22,NNW,340,6.0,13.0,57,0.00,,SCT047,0.00,0.00,VWS V14.01,2013-02-02 10:40:00,
2013-02-02 05:45:00,22.8,10.6,30.22,NNW,331,10.0,14.0,59,0.00,,SCT047,0.00,0.00,VWS V14.01,2013-02-02 10:45:00,
2013-02-02 05:50:00,22.8,10.2,30.21,NW,317,7.0,13.0,58,0.00,,SCT047,0.00,0.00,VWS V14.01,2013-02-02 10:50:00,
2013-02-02 05:55:00,22.8,10.6,30.22,NW,308,11.0,13.0,59,0.00,,SCT047,0.00,0.00,VWS V14.01,2013-02-02 10:55:00,
2013-02-02 06:00:00,22.7,10.2,30.22,NW,326,3.0,15.0,58,0.00,,SCT047,0.00,0.00,VWS V14.01,2013-02-02 11:00:00,
2013-02-02 06:05:00,22.6,10.1,30.22,NNW,328,7.0,13.0,58,0.00,,SCT047,0.00,0.00,VWS V14.01,2013-02-02 11:05:00,
2013-02-02 06:10:00,22.6,10.8,30.21,NW,309,7.0,13.0,60,0.00,,SCT047,0.00,0.00,VWS V14.01,2013-02-02 11:10:00,
2013-02-02 06:15:00,22.5,10.4,30.21,NW,319,9.0,13.0,59,0.00,,SCT047,0.00,0.00,VWS V14.01,2013-02-02 11:15:00,
2013-02-02 06:20:00,22.5,10.4,30.22,NW,310,7.0,10.0,59,0.00,,SCT047,0.00,0.00,VWS V14.01,2013-02-02 11:20:00,
2013-02-02 06:25:00,22.4,10.6,30.21,NW,322,8.0,12.0,60,0.00,,SCT047,0.00,0.00,VWS V14.01,2013-02-02 11:25:00,
2013-02-02 06:30:00,22.5,10.4,30.22,WNW,298,3.0,10.0,59,0.00,,SCT047,0.00,0.00,VWS V14.01,2013-02-02 11:30:00,
2013-02-02 06:35:00,22.5,10.7,30.22,NW,313,9.0,10.0,60,0.00,,SCT047,0.00,0.00,VWS V14.01,2013-02-02 11:35:00,
2013-02-02 06:40:00,22.5,10.7,30.22,WNW,303,12.0,12.0,60,0.00,,SCT047,0.00,0.00,VWS V14.01,2013-02-02 11:40:00,
2013-02-02 06:45:00,22.6,11.2,30.23,NW,313,9.0,9.0,61,0.00,,SCT047,0.00,0.00,VWS V14.01,2013-02-02 11:45:00,
2013-02-02 06:50:00,22.5,11.1,30.22,NNW,340,8.0,11.0,61,0.00,,SCT047,0.00,0.00,VWS V14.01,2013-02-02 11:50:00,
2013-02-02 06:55:00,22.5,11.5,30.22,NW,311,2.0,9.0,62,0.00,,SCT047,0.00,0.00,VWS V14.01,2013-02-02 11:55:00,
2013-02-02 07:00:00,22.5,11.5,30.23,NNW,334,10.0,14.0,62,0.00,,SCT047,0.00,5.00,VWS V14.01,2013-02-02 12:00:00,
2013-02-02 07:05:00,22.5,11.5,30.23,NNW,344,5.0,9.0,62,0.00,,SCT047,0.00,7.00,VWS V14.01,2013-02-02 12:05:00,
2013-02-02 07:10:00,22.5,11.5,30.23,NW,318,4.0,12.0,62,0.00,,SCT047,0.00,12.00,VWS V14.01,2013-02-02 12:10:00,
2013-02-02 07:15:00,22.5,11.5,30.23,WNW,298,7.0,13.0,62,0.00,,SCT047,0.00,19.00,VWS V14.01,2013-02-02 12:15:00,
2013-02-02 07:20:00,22.6,11.6,30.24,NW,318,9.0,12.0,62,0.00,,SCT047,0.00,26.00,VWS V14.01,2013-02-02 12:20:00,
2013-02-02 07:25:00,22.6,11.2,30.24,NW,315,8.0,13.0,61,0.00,,SCT047,0.00,37.00,VWS V14.01,2013-02-02 12:25:00,
2013-02-02 07:30:00,22.7,11.6,30.24,WNW,302,13.0,13.0,62,0.00,,SCT047,0.00,37.00,VWS V14.01,2013-02-02 12:30:00,
2013-02-02 07:35:00,22.9,12.2,30.24,NNW,331,8.0,14.0,63,0.00,,CLR,0.00,49.00,VWS V14.01,2013-02-02 12:35:00,
2013-02-02 07:40:00,23.2,11.8,30.24,NNW,336,10.0,12.0,61,0.00,,CLR,0.00,65.00,VWS V14.01,2013-02-02 12:40:00,
2013-02-02 07:45:00,23.5,12.0,30.24,NW,320,6.0,9.0,61,0.00,,CLR,0.00,81.00,VWS V14.01,2013-02-02 12:45:00,
2013-02-02 07:50:00,23.9,12.4,30.23,NW,315,6.0,10.0,61,0.00,,CLR,0.00,84.00,VWS V14.01,2013-02-02 12:50:00,
2013-02-02 07:55:00,24.1,12.2,30.24,NNW,343,6.0,12.0,60,0.00,,CLR,0.00,77.00,VWS V14.01,2013-02-02 12:55:00,
2013-02-02 08:00:00,24.3,12.4,30.24,WNW,302,7.0,11.0,60,0.00,,CLR,0.00,128.00,VWS V14.01,2013-02-02 13:00:00,
2013-02-02 08:05:00,24.3,12.1,30.24,NW,313,5.0,14.0,59,0.00,,CLR,0.00,156.00,VWS V14.01,2013-02-02 13:05:00,
2013-02-02 08:10:00,24.5,12.6,30.25,NW,320,10.0,11.0,60,0.00,,CLR,0.00,160.00,VWS V14.01,2013-02-02 13:10:00,
2013-02-02 08:15:00,24.4,12.9,30.24,NW,306,10.0,12.0,61,0.00,,CLR,0.00,97.00,VWS V14.01,2013-02-02 13:15:00,
2013-02-02 08:20:00,24.1,12.6,30.25,WNW,289,4.0,9.0,61,0.00,,CLR,0.00,91.00,VWS V14.01,2013-02-02 13:20:00,
2013-02-02 08:25:00,24.0,12.9,30.25,NW,315,5.0,11.0,62,0.00,,CLR,0.00,104.00,VWS V14.01,2013-02-02 13:25:00,
2013-02-02 08:30:00,24.1,13.3,30.26,NW,317,8.0,11.0,63,0.00,,CLR,0.00,102.00,VWS V14.01,2013-02-02 13:30:00,
2013-02-02 08:35:00,24.1,13.0,30.25,NW,321,7.0,11.0,62,0.00,,CLR,0.00,97.00,VWS V14.01,2013-02-02 13:35:00,
2013-02-02 08:40:00,24.1,13.3,30.26,NW,305,4.0,10.0,63,0.00,,CLR,0.00,90.00,VWS V14.01,2013-02-02 13:40:00,
2013-02-02 08:45:00,24.0,12.5,30.26,WNW,290,4.0,10.0,61,0.00,,CLR,0.00,93.00,VWS V14.01,2013-02-02 13:45:00,
2013-02-02 08:50:00,24.1,13.0,30.26,NW,304,3.0,7.0,62,0.00,,CLR,0.00,97.00,VWS V14.01,2013-02-02 13:50:00,
2013-02-02 08:55:00,24.1,13.0,30.25,West,276,6.0,9.0,62,0.00,,CLR,0.00,137.00,VWS V14.01,2013-02-02 13:55:00,
2013-02-02 09:00:00,24.2,13.1,30.25,WNW,297,9.0,10.0,62,0.00,,CLR,0.00,146.00,VWS V14.01,2013-02-02 14:00:00,
2013-02-02 09:05:00,24.5,13.0,30.25,NNW,346,6.0,9.0,61,0.00,,CLR,0.00,190.00,VWS V14.01,2013-02-02 14:05:00,
2013-02-02 09:10:00,24.6,13.4,30.25,North,355,6.0,11.0,62,0.00,,CLR,0.00,151.00,VWS V14.01,2013-02-02 14:10:00,
2013-02-02 09:15:00,24.5,13.4,30.25,WNW,297,2.0,10.0,62,0.00,,CLR,0.00,135.00,VWS V14.01,2013-02-02 14:15:00,
2013-02-02 09:20:00,24.6,13.8,30.25,NW,310,3.0,7.0,63,0.00,,CLR,0.00,269.00,VWS V14.01,2013-02-02 14:20:00,
2013-02-02 09:25:00,25.3,14.8,30.25,NW,321,0.0,7.0,64,0.00,,CLR,0.00,359.00,VWS V14.01,2013-02-02 14:25:00,
2013-02-02 09:30:00,26.0,13.3,30.25,NW,313,0.0,7.0,58,0.00,,CLR,0.00,171.00,VWS V14.01,2013-02-02 14:30:00,
2013-02-02 09:35:00,25.6,13.3,30.25,West,259,9.0,11.0,59,0.00,,CLR,0.00,178.00,VWS V14.01,2013-02-02 14:35:00,
2013-02-02 09:40:00,25.1,13.6,30.25,NW,311,5.0,9.0,61,0.00,,CLR,0.00,163.00,VWS V14.01,2013-02-02 14:40:00,
2013-02-02 09:45:00,25.0,14.2,30.25,NW,307,10.0,10.0,63,0.00,,CLR,0.00,176.00,VWS V14.01,2013-02-02 14:45:00,
2013-02-02 09:50:00,25.0,14.2,30.25,NW,315,1.0,7.0,63,0.00,,CLR,0.00,181.00,VWS V14.01,2013-02-02 14:50:00,
2013-02-02 09:55:00,25.3,14.8,30.25,WNW,300,6.0,8.0,64,0.00,,CLR,0.00,206.00,VWS V14.01,2013-02-02 14:55:00,
2013-02-02 10:00:00,25.3,14.5,30.25,West,267,4.0,9.0,63,0.00,,CLR,0.00,181.00,VWS V14.01,2013-02-02 15:00:00,
2013-02-02 10:05:00,25.3,14.5,30.24,West,280,4.0,8.0,63,0.00,,CLR,0.00,113.00,VWS V14.01,2013-02-02 15:05:00,
2013-02-02 10:10:00,25.0,14.2,30.25,West,263,3.0,8.0,63,0.00,,CLR,0.00,141.00,VWS V14.01,2013-02-02 15:10:00,
2013-02-02 10:15:00,25.0,14.2,30.25,WNW,301,5.0,10.0,63,0.00,,CLR,0.00,114.00,VWS V14.01,2013-02-02 15:15:00,
2013-02-02 10:20:00,25.2,14.4,30.24,West,263,2.0,7.0,63,0.00,,CLR,0.00,461.00,VWS V14.01,2013-02-02 15:20:00,
2013-02-02 10:25:00,26.0,14.8,30.24,West,265,5.0,9.0,62,0.00,,CLR,0.00,508.00,VWS V14.01,2013-02-02 15:25:00,
2013-02-02 10:30:00,26.3,14.7,30.24,West,264,7.0,12.0,61,0.00,,CLR,0.00,504.00,VWS V14.01,2013-02-02 15:30:00,
2013-02-02 10:35:00,26.2,14.6,30.24,West,273,4.0,9.0,61,0.00,,CLR,0.00,468.00,VWS V14.01,2013-02-02 15:35:00,
2013-02-02 10:40:00,26.8,15.2,30.24,West,265,0.0,9.0,61,0.00,,CLR,0.00,127.00,VWS V14.01,2013-02-02 15:40:00,
2013-02-02 10:45:00,26.8,14.8,30.23,WSW,252,6.0,13.0,60,0.00,,CLR,0.00,515.00,VWS V14.01,2013-02-02 15:45:00,
2013-02-02 10:50:00,27.3,15.3,30.23,WSW,252,4.0,9.0,60,0.00,,CLR,0.00,517.00,VWS V14.01,2013-02-02 15:50:00,
2013-02-02 10:55:00,26.7,14.7,30.24,WNW,296,4.0,10.0,60,0.00,,CLR,0.00,545.00,VWS V14.01,2013-02-02 15:55:00,
2013-02-02 11:00:00,26.7,14.3,30.24,West,261,2.0,8.0,59,0.00,,CLR,0.00,120.00,VWS V14.01,2013-02-02 16:00:00,
2013-02-02 11:05:00,26.8,15.2,30.23,West,273,4.0,9.0,61,0.00,,CLR,0.00,541.00,VWS V14.01,2013-02-02 16:05:00,
2013-02-02 11:10:00,27.0,15.0,30.23,West,277,6.0,12.0,60,0.00,,CLR,0.00,306.00,VWS V14.01,2013-02-02 16:10:00,
2013-02-02 11:15:00,26.1,14.1,30.22,WNW,300,0.0,6.0,60,0.00,,CLR,0.00,156.00,VWS V14.01,2013-02-02 16:15:00,
2013-02-02 11:20:00,25.7,14.9,30.22,West,281,0.0,9.0,63,0.00,,CLR,0.00,104.00,VWS V14.01,2013-02-02 16:20:00,
2013-02-02 11:25:00,25.9,14.7,30.22,WSW,245,8.0,8.0,62,0.00,,CLR,0.00,128.00,VWS V14.01,2013-02-02 16:25:00,
2013-02-02 11:30:00,26.0,15.1,30.21,SW,225,3.0,9.0,63,0.00,,CLR,0.00,120.00,VWS V14.01,2013-02-02 16:30:00,
2013-02-02 11:34:00,25.7,13.8,30.21,WNW,282,0.0,7.0,60,0.00,,CLR,0.00,141.00,VWS V14.01,2013-02-02 16:34:00,
2013-02-02 11:39:00,26.3,15.1,30.21,West,268,5.0,8.0,62,0.00,,CLR,0.00,601.00,VWS V14.01,2013-02-02 16:39:00,
2013-02-02 11:44:00,27.0,14.6,30.21,WSW,241,6.0,6.0,59,0.00,,CLR,0.00,149.00,VWS V14.01,2013-02-02 16:44:00,
2013-02-02 11:49:00,27.6,15.2,30.21,West,261,3.0,7.0,59,0.00,,CLR,0.00,570.00,VWS V14.01,2013-02-02 16:49:00,
2013-02-02 11:54:00,27.5,13.9,30.20,SW,229,1.0,9.0,56,0.00,,CLR,0.00,401.00,VWS V14.01,2013-02-02 16:54:00,
2013-02-02 11:59:00,27.5,13.9,30.20,West,276,4.0,8.0,56,0.00,,CLR,0.00,459.00,VWS V14.01,2013-02-02 16:59:00,
2013-02-02 12:04:00,27.5,13.9,30.20,SW,216,4.0,8.0,56,0.00,,CLR,0.00,631.00,VWS V14.01,2013-02-02 17:04:00,
2013-02-02 12:09:00,28.4,14.3,30.19,WSW,252,2.0,7.0,55,0.00,,CLR,0.00,661.00,VWS V14.01,2013-02-02 17:09:00,
2013-02-02 12:14:00,28.8,13.8,30.19,SW,234,2.0,7.0,53,0.00,,CLR,0.00,543.00,VWS V14.01,2013-02-02 17:14:00,
2013-02-02 12:19:00,29.8,13.0,30.18,SW,236,1.0,10.0,49,0.00,,CLR,0.00,564.00,VWS V14.01,2013-02-02 17:19:00,
2013-02-02 12:24:00,29.9,12.1,30.18,SSW,209,5.0,11.0,47,0.00,,CLR,0.00,526.00,VWS V14.01,2013-02-02 17:24:00,
2013-02-02 12:29:00,29.6,11.4,30.17,WSW,237,5.0,10.0,46,0.00,,CLR,0.00,520.00,VWS V14.01,2013-02-02 17:29:00,
2013-02-02 12:34:00,29.9,12.1,30.17,SW,224,9.0,10.0,47,0.00,,CLR,0.00,504.00,VWS V14.01,2013-02-02 17:34:00,
2013-02-02 12:39:00,29.8,10.6,30.16,WSW,256,4.0,11.0,44,0.00,,CLR,0.00,522.00,VWS V14.01,2013-02-02 17:39:00,
2013-02-02 12:44:00,30.2,12.4,30.16,SSW,194,4.0,8.0,47,0.00,,CLR,0.00,534.00,VWS V14.01,2013-02-02 17:44:00,
2013-02-02 12:49:00,30.1,10.8,30.16,WSW,244,9.0,12.0,44,0.00,,CLR,0.00,302.00,VWS V14.01,2013-02-02 17:49:00,
2013-02-02 12:54:00,30.0,11.7,30.16,West,259,8.0,12.0,46,0.00,,CLR,0.00,563.00,VWS V14.01,2013-02-02 17:54:00,
2013-02-02 12:59:00,30.0,13.2,30.16,SSW,213,5.0,13.0,49,0.00,,CLR,0.00,571.00,VWS V14.01,2013-02-02 17:59:00,
2013-02-02 13:04:00,30.3,12.0,30.15,WSW,241,10.0,12.0,46,0.00,,CLR,0.00,550.00,VWS V14.01,2013-02-02 18:04:00,
2013-02-02 13:09:00,29.8,11.6,30.15,SSW,200,8.0,13.0,46,0.00,,CLR,0.00,431.00,VWS V14.01,2013-02-02 18:09:00,
2013-02-02 13:14:00,29.7,11.0,30.15,WSW,250,14.0,17.0,45,0.00,,CLR,0.00,540.00,VWS V14.01,2013-02-02 18:14:00,
2013-02-02 13:19:00,29.7,11.9,30.15,SW,217,1.0,13.0,47,0.00,,CLR,0.00,520.00,VWS V14.01,2013-02-02 18:19:00,
2013-02-02 13:24:00,29.8,13.4,30.14,SW,218,6.0,16.0,50,0.00,,CLR,0.00,545.00,VWS V14.01,2013-02-02 18:24:00,
2013-02-02 13:29:00,30.2,13.8,30.14,WSW,242,10.0,13.0,50,0.00,,CLR,0.00,432.00,VWS V14.01,2013-02-02 18:29:00,
2013-02-02 13:34:00,30.1,15.5,30.14,SW,223,8.0,15.0,54,0.00,,FEW032,0.00,510.00,VWS V14.01,2013-02-02 18:34:00,
2013-02-02 13:39:00,30.2,14.3,30.13,SW,235,12.0,14.0,51,0.00,,FEW032,0.00,482.00,VWS V14.01,2013-02-02 18:39:00,
2013-02-02 13:44:00,30.2,14.3,30.13,WSW,238,11.0,11.0,51,0.00,,FEW032,0.00,475.00,VWS V14.01,2013-02-02 18:44:00,
2013-02-02 13:49:00,30.1,14.6,30.13,WSW,239,10.0,16.0,52,0.00,,FEW032,0.00,469.00,VWS V14.01,2013-02-02 18:49:00,
2013-02-02 13:54:00,30.3,14.8,30.13,SW,215,9.0,10.0,52,0.00,,FEW032,0.00,436.00,VWS V14.01,2013-02-02 18:54:00,
2013-02-02 13:59:00,30.6,15.1,30.13,SW,223,3.0,13.0,52,0.00,,FEW032,0.00,466.00,VWS V14.01,2013-02-02 18:59:00,
2013-02-02 14:04:00,30.2,13.4,30.12,WSW,246,9.0,16.0,49,0.00,,FEW032,0.00,469.00,VWS V14.01,2013-02-02 19:04:00,
2013-02-02 14:09:00,30.1,14.2,30.12,West,272,7.0,10.0,51,0.00,,FEW032,0.00,306.00,VWS V14.01,2013-02-02 19:09:00,
2013-02-02 14:14:00,30.1,15.1,30.12,West,275,7.0,15.0,53,0.00,,FEW032,0.00,352.00,VWS V14.01,2013-02-02 19:14:00,
2013-02-02 14:19:00,30.1,14.6,30.12,SSW,213,3.0,12.0,52,0.00,,FEW032,0.00,306.00,VWS V14.01,2013-02-02 19:19:00,
2013-02-02 14:24:00,29.9,15.3,30.11,WSW,250,13.0,13.0,54,0.00,,FEW032,0.00,272.00,VWS V14.01,2013-02-02 19:24:00,
2013-02-02 14:29:00,29.8,14.3,30.11,SW,227,4.0,15.0,52,0.00,,FEW032,0.00,255.00,VWS V14.01,2013-02-02 19:29:00,
2013-02-02 14:34:00,29.7,13.8,30.11,SSW,211,6.0,16.0,51,0.00,,FEW034,0.00,338.00,VWS V14.01,2013-02-02 19:34:00,
2013-02-02 14:39:00,29.6,14.1,30.11,SSW,211,7.0,18.0,52,0.00,,FEW034,0.00,262.00,VWS V14.01,2013-02-02 19:39:00,
2013-02-02 14:44:00,29.4,14.8,30.11,SW,229,9.0,13.0,54,0.00,,FEW034,0.00,255.00,VWS V14.01,2013-02-02 19:44:00,
2013-02-02 14:49:00,29.3,15.1,30.10,WSW,253,4.0,13.0,55,0.00,,FEW034,0.00,343.00,VWS V14.01,2013-02-02 19:49:00,
2013-02-02 14:54:00,29.7,15.1,30.11,WSW,245,9.0,17.0,54,0.00,,FEW034,0.00,345.00,VWS V14.01,2013-02-02 19:54:00,
2013-02-02 14:59:00,30.0,15.8,30.10,SW,232,8.0,11.0,55,0.00,,FEW034,0.00,323.00,VWS V14.01,2013-02-02 19:59:00,
2013-02-02 15:04:00,29.8,15.2,30.10,WSW,244,4.0,13.0,54,0.00,,FEW034,0.00,306.00,VWS V14.01,2013-02-02 20:04:00,
2013-02-02 15:09:00,29.7,15.1,30.10,SW,234,11.0,11.0,54,0.00,,FEW034,0.00,229.00,VWS V14.01,2013-02-02 20:09:00,
2013-02-02 15:14:00,29.4,14.0,30.10,SW,217,9.0,12.0,52,0.00,,FEW034,0.00,202.00,VWS V14.01,2013-02-02 20:14:00,
2013-02-02 15:19:00,28.8,13.4,30.10,SW,223,8.0,11.0,52,0.00,,FEW034,0.00,181.00,VWS V14.01,2013-02-02 20:19:00,
2013-02-02 15:24:00,28.9,13.9,30.09,West,271,4.0,18.0,53,0.00,,FEW034,0.00,207.00,VWS V14.01,2013-02-02 20:24:00,
2013-02-02 15:29:00,28.8,13.8,30.09,South,190,9.0,18.0,53,0.00,,FEW034,0.00,165.00,VWS V14.01,2013-02-02 20:29:00,
2013-02-02 15:34:00,28.7,14.6,30.09,WSW,258,8.0,17.0,55,0.00,,SCT090,0.00,176.00,VWS V14.01,2013-02-02 20:34:00,
2013-02-02 15:39:00,28.6,14.5,30.09,West,279,9.0,15.0,55,0.00,,SCT090,0.00,167.00,VWS V14.01,2013-02-02 20:39:00,
2013-02-02 15:44:00,28.5,14.8,30.09,WSW,256,9.0,17.0,56,0.00,,SCT090,0.00,162.00,VWS V14.01,2013-02-02 20:44:00,
2013-02-02 15:49:00,28.3,14.6,30.08,SW,226,13.0,18.0,56,0.00,,SCT090,0.00,141.00,VWS V14.01,2013-02-02 20:49:00,
2013-02-02 15:54:00,28.3,15.4,30.09,WSW,248,9.0,12.0,58,0.00,,SCT090,0.00,113.00,VWS V14.01,2013-02-02 20:54:00,
2013-02-02 15:59:00,28.3,15.8,30.09,WSW,250,9.0,19.0,59,0.00,,SCT090,0.00,109.00,VWS V14.01,2013-02-02 20:59:00,
2013-02-02 16:04:00,28.3,16.2,30.09,WSW,240,8.0,13.0,60,0.00,,SCT090,0.00,76.00,VWS V14.01,2013-02-02 21:04:00,
2013-02-02 16:09:00,28.1,15.6,30.09,West,275,6.0,13.0,59,0.00,,SCT090,0.00,65.00,VWS V14.01,2013-02-02 21:09:00,
2013-02-02 16:14:00,28.2,16.1,30.09,West,267,4.0,14.0,60,0.00,,SCT090,0.00,58.00,VWS V14.01,2013-02-02 21:14:00,
2013-02-02 16:19:00,28.2,15.7,30.09,WSW,255,9.0,18.0,59,0.00,,SCT090,0.00,51.00,VWS V14.01,2013-02-02 21:19:00,
2013-02-02 16:24:00,28.3,16.2,30.09,SW,236,11.0,16.0,60,0.00,,SCT090,0.00,46.00,VWS V14.01,2013-02-02 21:24:00,
2013-02-02 16:29:00,28.2,15.7,30.08,West,279,12.0,17.0,59,0.00,,SCT090,0.00,42.00,VWS V14.01,2013-02-02 21:29:00,
2013-02-02 16:34:00,28.1,16.0,30.08,SW,234,7.0,17.0,60,0.00,,FEW038,0.00,39.00,VWS V14.01,2013-02-02 21:34:00,
2013-02-02 16:39:00,28.2,16.9,30.08,SW,232,9.0,18.0,62,0.00,,FEW038,0.00,33.00,VWS V14.01,2013-02-02 21:39:00,
2013-02-02 16:44:00,28.0,16.3,30.08,WSW,242,11.0,20.0,61,0.00,,FEW038,0.00,26.00,VWS V14.01,2013-02-02 21:44:00,
2013-02-02 16:49:00,28.0,16.3,30.08,SW,234,6.0,19.0,61,0.00,,FEW038,0.00,19.00,VWS V14.01,2013-02-02 21:49:00,
2013-02-02 16:54:00,27.9,16.6,30.08,WNW,284,7.0,13.0,62,0.00,,FEW038,0.00,12.00,VWS V14.01,2013-02-02 21:54:00,
2013-02-02 16:59:00,27.9,16.6,30.07,WSW,254,10.0,16.0,62,0.00,,FEW038,0.00,7.00,VWS V14.01,2013-02-02 21:59:00,
2013-02-02 17:04:00,27.8,16.5,30.08,SSW,211,9.0,17.0,62,0.00,,FEW038,0.00,0.00,VWS V14.01,2013-02-02 22:04:00,
2013-02-02 17:09:00,27.8,16.5,30.08,SW,235,12.0,14.0,62,0.00,,FEW038,0.00,0.00,VWS V14.01,2013-02-02 22:09:00,
2013-02-02 17:14:00,27.8,16.5,30.08,WSW,241,9.0,15.0,62,0.00,,FEW038,0.00,0.00,VWS V14.01,2013-02-02 22:14:00,
2013-02-02 17:19:00,27.7,16.4,30.08,WSW,257,4.0,10.0,62,0.00,,FEW038,0.00,0.00,VWS V14.01,2013-02-02 22:19:00,
2013-02-02 17:24:00,27.8,16.5,30.07,SW,228,7.0,18.0,62,0.00,,FEW038,0.00,0.00,VWS V14.01,2013-02-02 22:24:00,
2013-02-02 17:29:00,27.6,16.3,30.08,West,265,5.0,14.0,62,0.00,,FEW038,0.00,0.00,VWS V14.01,2013-02-02 22:29:00,
2013-02-02 17:34:00,27.7,16.4,30.08,West,274,9.0,12.0,62,0.00,,OVC100,0.00,0.00,VWS V14.01,2013-02-02 22:34:00,
2013-02-02 17:39:00,27.7,16.4,30.08,WSW,245,7.0,14.0,62,0.00,,OVC100,0.00,0.00,VWS V14.01,2013-02-02 22:39:00,
2013-02-02 17:44:00,27.8,16.5,30.08,WSW,238,6.0,11.0,62,0.00,,OVC100,0.00,0.00,VWS V14.01,2013-02-02 22:44:00,
2013-02-02 17:49:00,27.8,16.1,30.07,West,259,7.0,12.0,61,0.00,,OVC100,0.00,0.00,VWS V14.01,2013-02-02 22:49:00,
2013-02-02 17:54:00,27.8,16.1,30.07,WSW,244,13.0,15.0,61,0.00,,OVC100,0.00,0.00,VWS V14.01,2013-02-02 22:54:00,
2013-02-02 17:59:00,27.8,16.5,30.07,West,265,6.0,14.0,62,0.00,,OVC100,0.00,0.00,VWS V14.01,2013-02-02 22:59:00,
2013-02-02 18:03:00,28.0,16.7,30.07,WSW,258,11.0,11.0,62,0.00,,OVC100,0.00,0.00,VWS V14.01,2013-02-02 23:03:00,
2013-02-02 18:08:00,28.1,17.5,30.07,SW,233,4.0,9.0,64,0.00,,OVC100,0.00,0.00,VWS V14.01,2013-02-02 23:08:00,
2013-02-02 18:13:00,28.1,17.1,30.07,West,275,3.0,11.0,63,0.00,,OVC100,0.00,0.00,VWS V14.01,2013-02-02 23:13:00,
2013-02-02 18:18:00,28.1,17.1,30.07,SW,225,6.0,12.0,63,0.00,,OVC100,0.00,0.00,VWS V14.01,2013-02-02 23:18:00,
2013-02-02 18:23:00,28.1,16.8,30.07,WSW,243,4.0,15.0,62,0.00,,OVC100,0.00,0.00,VWS V14.01,2013-02-02 23:23:00,
2013-02-02 18:28:00,28.2,16.9,30.07,SW,228,4.0,16.0,62,0.00,,OVC100,0.00,0.00,VWS V14.01,2013-02-02 23:28:00,
2013-02-02 18:33:00,28.3,17.3,30.06,SW,228,6.0,14.0,63,0.00,,OVC090,0.00,0.00,VWS V14.01,2013-02-02 23:33:00,
2013-02-02 18:38:00,28.3,17.3,30.06,SW,226,9.0,11.0,63,0.00,,OVC090,0.00,0.00,VWS V14.01,2013-02-02 23:38:00,
2013-02-02 18:43:00,28.4,17.4,30.06,SW,227,10.0,17.0,63,0.00,,OVC090,0.00,0.00,VWS V14.01,2013-02-02 23:43:00,
2013-02-02 18:48:00,28.5,17.5,30.06,WSW,249,5.0,10.0,63,0.00,,OVC090,0.00,0.00,VWS V14.01,2013-02-02 23:48:00,
2013-02-02 18:53:00,28.6,18.0,30.06,SW,228,11.0,12.0,64,0.00,,OVC090,0.00,0.00,VWS V14.01,2013-02-02 23:53:00,
2013-02-02 18:58:00,28.6,18.0,30.06,West,269,6.0,15.0,64,0.00,,OVC090,0.00,0.00,VWS V14.01,2013-02-02 23:58:00,
2013-02-02 19:03:00,28.7,18.1,30.06,SW,217,9.0,12.0,64,0.00,,OVC090,0.00,0.00,VWS V14.01,2013-02-03 00:03:00,
2013-02-02 19:08:00,28.8,18.5,30.06,WSW,252,3.0,10.0,65,0.00,,OVC090,0.00,0.00,VWS V14.01,2013-02-03 00:08:00,
2013-02-02 19:13:00,28.8,18.5,30.05,SW,232,5.0,13.0,65,0.00,,OVC090,0.00,0.00,VWS V14.01,2013-02-03 00:13:00,
2013-02-02 19:18:00,28.9,18.6,30.05,SSW,203,7.0,10.0,65,0.00,,OVC090,0.00,0.00,VWS V14.01,2013-02-03 00:18:00,
2013-02-02 19:23:00,28.9,18.6,30.05,WNW,298,4.0,12.0,65,0.00,,OVC090,0.00,0.00,VWS V14.01,2013-02-03 00:23:00,
2013-02-02 19:25:00,28.8,18.2,30.05,West,270,6.0,13.0,64,0.00,,OVC090,0.00,0.00,VWS V14.01,2013-02-03 00:25:00,
2013-02-02 19:30:00,28.8,18.2,30.05,WNW,292,4.0,9.0,64,0.00,,OVC090,0.00,0.00,VWS V14.01,2013-02-03 00:30:00,
2013-02-02 19:35:00,28.8,17.8,30.05,West,270,5.0,12.0,63,0.00,,OVC090,0.00,0.00,VWS V14.01,2013-02-03 00:35:00,
2013-02-02 19:40:00,28.8,17.4,30.05,WNW,292,6.0,11.0,62,0.00,,OVC090,0.00,0.00,VWS V14.01,2013-02-03 00:40:00,
2013-02-02 19:45:00,28.7,17.3,30.05,West,270,5.0,8.0,62,0.00,,OVC090,0.00,0.00,VWS V14.01,2013-02-03 00:45:00,
2013-02-02 19:50:00,28.7,17.0,30.05,WNW,292,5.0,10.0,61,0.00,,OVC090,0.00,0.00,VWS V14.01,2013-02-03 00:50:00,
2013-02-02 20:01:00,28.7,17.0,30.05,WNW,292,5.0,10.0,61,0.00,,OVC090,0.00,0.00,VWS V14.01,2013-02-03 01:01:00,
2013-02-02 20:06:00,28.7,16.2,30.05,West,261,4.0,4.0,59,0.00,,OVC090,0.00,0.00,VWS V14.01,2013-02-03 01:06:00,
2013-02-02 20:11:00,28.7,15.8,30.05,West,260,3.0,3.0,58,0.00,,OVC090,0.00,0.00,VWS V14.01,2013-02-03 01:11:00,
2013-02-02 20:16:00,28.8,16.3,30.05,West,272,2.0,2.0,59,0.00,,OVC090,0.00,0.00,VWS V14.01,2013-02-03 01:16:00,
2013-02-02 20:21:00,28.8,15.9,30.05,West,268,6.0,6.0,58,0.00,,OVC090,0.00,0.00,VWS V14.01,2013-02-03 01:21:00,
2013-02-02 20:26:00,28.9,16.0,30.04,WNW,291,11.0,11.0,58,0.00,,OVC090,0.00,0.00,VWS V14.01,2013-02-03 01:26:00,
2013-02-02 20:31:00,28.9,16.0,30.05,WSW,247,9.0,12.0,58,0.00,,OVC065,0.00,0.00,VWS V14.01,2013-02-03 01:31:00,
2013-02-02 20:36:00,28.7,17.3,30.05,WSW,256,12.0,18.0,62,0.00,,OVC065,0.00,0.00,VWS V14.01,2013-02-03 01:36:00,
2013-02-02 20:41:00,28.6,16.5,30.05,WSW,252,7.0,16.0,60,0.00,,OVC065,0.00,0.00,VWS V14.01,2013-02-03 01:41:00,
2013-02-02 20:46:00,28.5,17.1,30.05,WSW,238,5.0,15.0,62,0.00,,OVC065,0.00,0.00,VWS V14.01,2013-02-03 01:46:00,
2013-02-02 20:51:00,28.3,17.7,30.05,West,277,18.0,18.0,64,0.00,,OVC065,0.00,0.00,VWS V14.01,2013-02-03 01:51:00,
2013-02-02 20:56:00,28.1,17.9,30.05,West,264,6.0,18.0,65,0.00,,OVC065,0.00,0.00,VWS V14.01,2013-02-03 01:56:00,
2013-02-02 21:01:00,28.0,18.1,30.05,West,260,8.0,15.0,66,0.00,,OVC065,0.00,0.00,VWS V14.01,2013-02-03 02:01:00,
2013-02-02 21:06:00,28.0,18.1,30.05,WSW,245,8.0,15.0,66,0.00,,OVC065,0.00,0.00,VWS V14.01,2013-02-03 02:06:00,
2013-02-02 21:11:00,27.9,18.4,30.05,West,277,9.0,18.0,67,0.00,,OVC065,0.00,0.00,VWS V14.01,2013-02-03 02:11:00,
2013-02-02 21:16:00,27.9,18.4,30.05,West,274,12.0,12.0,67,0.00,,OVC065,0.00,0.00,VWS V14.01,2013-02-03 02:16:00,
2013-02-02 21:21:00,27.8,18.6,30.05,West,281,5.0,13.0,68,0.00,,OVC065,0.00,0.00,VWS V14.01,2013-02-03 02:21:00,
2013-02-02 21:26:00,27.7,18.9,30.05,West,279,2.0,9.0,69,0.00,,OVC065,0.00,0.00,VWS V14.01,2013-02-03 02:26:00,
2013-02-02 21:31:00,27.7,19.2,30.05,West,265,5.0,11.0,70,0.00,,OVC041,0.00,0.00,VWS V14.01,2013-02-03 02:31:00,
2013-02-02 21:36:00,27.6,19.4,30.05,West,275,5.0,11.0,71,0.00,,OVC041,0.00,0.00,VWS V14.01,2013-02-03 02:36:00,
2013-02-02 21:41:00,27.4,19.2,30.05,West,277,8.0,12.0,71,0.00,,OVC041,0.00,0.00,VWS V14.01,2013-02-03 02:41:00,
2013-02-02 21:46:00,27.4,19.6,30.05,West,273,1.0,11.0,72,0.00,,OVC041,0.00,0.00,VWS V14.01,2013-02-03 02:46:00,
2013-02-02 21:51:00,27.3,19.8,30.05,West,280,7.0,10.0,73,0.00,,OVC041,0.00,0.00,VWS V14.01,2013-02-03 02:51:00,
2013-02-02 21:56:00,27.1,19.9,30.05,WNW,287,4.0,10.0,74,0.00,,OVC041,0.00,0.00,VWS V14.01,2013-02-03 02:56:00,
2013-02-02 22:01:00,27.0,20.1,30.05,WNW,290,3.0,15.0,75,0.00,,,0.00,0.00,VWS V14.01,2013-02-03 03:01:00,
2013-02-02 22:06:00,26.8,20.3,30.05,NW,323,0.0,12.0,76,0.00,,,0.00,0.00,VWS V14.01,2013-02-03 03:06:00,
2013-02-02 22:11:00,26.6,21.0,30.06,NW,310,12.0,13.0,79,0.00,,,0.00,0.00,VWS V14.01,2013-02-03 03:11:00,
2013-02-02 22:16:00,26.3,21.3,30.06,NW,306,9.0,14.0,81,0.00,,,0.00,0.00,VWS V14.01,2013-02-03 03:16:00,
2013-02-02 22:21:00,26.1,21.4,30.05,WNW,289,7.0,15.0,82,0.00,,,0.00,0.00,VWS V14.01,2013-02-03 03:21:00,
2013-02-02 22:26:00,26.0,21.6,30.05,WNW,287,5.0,11.0,83,0.00,,,0.00,0.00,VWS V14.01,2013-02-03 03:26:00,
2013-02-02 22:31:00,26.0,21.8,30.05,NNW,328,2.0,11.0,84,0.00,,,0.00,0.00,VWS V14.01,2013-02-03 03:31:00,
2013-02-02 22:36:00,26.0,22.1,30.05,NW,314,2.0,14.0,85,0.00,,,0.00,0.00,VWS V14.01,2013-02-03 03:36:00,
2013-02-02 22:41:00,26.0,22.4,30.05,WNW,290,4.0,16.0,86,0.00,,,0.00,0.00,VWS V14.01,2013-02-03 03:41:00,
2013-02-02 22:46:00,25.9,22.6,30.05,West,273,8.0,13.0,87,0.00,,,0.00,0.00,VWS V14.01,2013-02-03 03:46:00,
2013-02-02 22:51:00,25.7,22.4,30.05,WSW,246,7.0,14.0,87,0.00,,,0.00,0.00,VWS V14.01,2013-02-03 03:51:00,
2013-02-02 22:56:00,25.7,22.4,30.05,NNW,341,3.0,15.0,87,0.00,,,0.00,0.00,VWS V14.01,2013-02-03 03:56:00,
2013-02-02 23:01:00,25.7,22.4,30.05,WNW,294,5.0,11.0,87,0.00,,,0.00,0.00,VWS V14.01,2013-02-03 04:01:00,
2013-02-02 23:06:00,25.6,22.3,30.05,NW,310,4.0,15.0,87,0.00,,,0.00,0.00,VWS V14.01,2013-02-03 04:06:00,
2013-02-02 23:11:00,25.6,22.5,30.05,WNW,298,4.0,9.0,88,0.00,,,0.00,0.00,VWS V14.01,2013-02-03 04:11:00,
2013-02-02 23:16:00,25.7,22.6,30.05,NW,321,7.0,12.0,88,0.00,,,0.00,0.00,VWS V14.01,2013-02-03 04:16:00,
2013-02-02 23:21:00,25.8,23.0,30.05,NW,316,9.0,17.0,89,0.00,,,0.00,0.00,VWS V14.01,2013-02-03 04:21:00,
2013-02-02 23:26:00,25.7,23.2,30.05,NW,316,3.0,12.0,90,0.00,,,0.00,0.00,VWS V14.01,2013-02-03 04:26:00,
2013-02-02 23:31:00,25.5,22.7,30.05,NW,319,5.0,14.0,89,0.00,,,0.00,0.00,VWS V14.01,2013-02-03 04:31:00,
2013-02-02 23:36:00,25.2,22.4,30.05,NW,321,8.0,17.0,89,0.00,,,0.00,0.00,VWS V14.01,2013-02-03 04:36:00,
2013-02-02 23:41:00,25.2,22.7,30.05,NW,311,5.0,11.0,90,0.00,,,0.00,0.00,VWS V14.01,2013-02-03 04:41:00,
2013-02-02 23:46:00,25.1,22.3,30.04,NW,317,11.0,13.0,89,0.00,,,0.00,0.00,VWS V14.01,2013-02-03 04:46:00,
2013-02-02 23:51:00,25.0,22.2,30.04,NNW,334,6.0,11.0,89,0.00,,,0.00,0.00,VWS V14.01,2013-02-03 04:51:00,
2013-02-02 23:56:00,24.8,22.0,30.04,NNW,331,11.0,15.0,89,0.00,,,0.00,0.00,VWS V14.01,2013-02-03 04:56:00,